Time;durP1;ratioP1;P1;durP2;ratioP2;P2;SDS_P1;SDS_P2;PMS_P1;PMS_P2;Temp;Humidity;BMP_temperature;BMP_pressure;BME280_temperature;BME280_humidity;BME280_pressure;Samples;Min_cycle;Max_cycle;Signal;HPM_P1;HPM_P2
2023/02/28 00:00:21;;;;;;;10.40;6.87;;;1.70;99.90;;;;;;5037970;28;20438;-69
2023/02/28 00:02:47;;;;;;;7.37;5.57;;;1.70;99.90;;;;;;5043132;28;20504;-69
2023/02/28 00:05:18;;;;;;;5.20;4.70;;;1.80;99.90;;;;;;5022080;28;20517;-70
2023/02/28 00:07:44;;;;;;;7.80;4.27;;;1.80;99.90;;;;;;5043491;28;20793;-70
2023/02/28 00:10:12;;;;;;;6.60;4.20;;;1.80;99.90;;;;;;5043161;28;20419;-68
2023/02/28 00:12:38;;;;;;;7.40;4.23;;;1.80;99.90;;;;;;5032407;28;20552;-70
2023/02/28 00:15:09;;;;;;;4.57;3.47;;;1.90;99.90;;;;;;5018969;28;20593;-69
2023/02/28 00:17:35;;;;;;;2.30;2.10;;;1.90;99.90;;;;;;5044975;28;20247;-68
2023/02/28 00:20:04;;;;;;;3.70;3.20;;;1.90;99.90;;;;;;5040893;28;20561;-68
2023/02/28 00:22:30;;;;;;;5.87;3.10;;;1.90;99.90;;;;;;5043567;28;20250;-71
2023/02/28 00:24:55;;;;;;;3.60;2.37;;;1.90;99.90;;;;;;5041310;28;20585;-69
2023/02/28 00:27:21;;;;;;;3.47;2.73;;;1.90;99.90;;;;;;5044080;28;20170;-69
2023/02/28 00:29:47;;;;;;;5.20;2.67;;;1.90;99.90;;;;;;5040789;28;20179;-68
2023/02/28 00:32:13;;;;;;;5.60;2.70;;;2.00;99.90;;;;;;5017484;28;20204;-67
2023/02/28 00:34:38;;;;;;;5.13;2.87;;;2.00;99.90;;;;;;5020575;28;20533;-70
2023/02/28 00:37:06;;;;;;;2.90;2.60;;;2.00;99.90;;;;;;5039788;28;20413;-70
2023/02/28 00:39:32;;;;;;;4.30;2.60;;;2.00;99.90;;;;;;5042215;28;20471;-70
2023/02/28 00:41:58;;;;;;;3.60;2.93;;;2.00;99.90;;;;;;5040221;28;20426;-70
2023/02/28 00:44:24;;;;;;;5.53;2.40;;;2.00;99.90;;;;;;5043259;28;20437;-71
2023/02/28 00:46:49;;;;;;;6.27;3.73;;;2.00;99.90;;;;;;5042970;28;20191;-71
2023/02/28 00:49:15;;;;;;;3.03;2.83;;;2.00;99.90;;;;;;5035249;28;20187;-71
2023/02/28 00:51:40;;;;;;;4.10;3.70;;;2.00;99.90;;;;;;5022662;28;20183;-70
2023/02/28 00:54:06;;;;;;;7.40;3.40;;;2.00;99.90;;;;;;5039364;28;20210;-70
2023/02/28 00:56:31;;;;;;;4.30;3.10;;;2.10;99.90;;;;;;5042334;28;20167;-69
2023/02/28 00:58:57;;;;;;;6.37;2.50;;;2.10;99.90;;;;;;5041086;28;20370;-69
2023/02/28 01:01:23;;;;;;;3.10;2.73;;;2.10;99.90;;;;;;5087337;22;20235;-67
2023/02/28 01:03:48;;;;;;;4.17;2.63;;;2.10;99.90;;;;;;5028249;28;20195;-70
2023/02/28 01:06:14;;;;;;;6.03;3.30;;;2.00;99.90;;;;;;5029834;28;20869;-71
2023/02/28 01:08:40;;;;;;;3.07;2.77;;;2.00;99.90;;;;;;5024490;28;20179;-72
2023/02/28 01:11:14;;;;;;;3.00;2.67;;;2.00;99.90;;;;;;5035242;28;20167;-72
2023/02/28 01:13:40;;;;;;;6.73;3.13;;;2.00;99.90;;;;;;5021134;28;20456;-71
2023/02/28 01:16:06;;;;;;;3.20;2.60;;;2.00;99.90;;;;;;5018932;28;20749;-69
2023/02/28 01:18:32;;;;;;;5.73;2.73;;;2.00;99.90;;;;;;5014459;28;20403;-71
2023/02/28 01:20:58;;;;;;;4.97;3.97;;;1.90;99.90;;;;;;5022137;28;20422;-71
2023/02/28 01:23:23;;;;;;;4.13;3.23;;;1.80;99.90;;;;;;5004116;28;20200;-71
2023/02/28 01:25:50;;;;;;;4.70;2.93;;;1.80;99.90;;;;;;4991397;28;20243;-73
2023/02/28 01:28:16;;;;;;;5.53;3.47;;;1.70;99.90;;;;;;4987626;28;20188;-72
2023/02/28 01:30:42;;;;;;;6.57;2.97;;;1.70;99.90;;;;;;4994613;28;20442;-72
2023/02/28 01:33:07;;;;;;;3.27;2.50;;;1.70;99.90;;;;;;5011242;28;20230;-70
2023/02/28 01:35:34;;;;;;;5.53;3.33;;;1.60;99.90;;;;;;5022202;28;20261;-70
2023/02/28 01:37:59;;;;;;;3.57;3.27;;;1.60;99.90;;;;;;5020662;28;20173;-72
2023/02/28 01:40:25;;;;;;;6.10;2.63;;;1.60;99.90;;;;;;5023937;28;20908;-70
2023/02/28 01:42:50;;;;;;;3.60;2.63;;;1.60;99.90;;;;;;5007650;28;20197;-69
2023/02/28 01:45:25;;;;;;;5.27;3.27;;;1.60;99.90;;;;;;5010528;28;20207;-72
2023/02/28 01:47:54;;;;;;;2.80;2.60;;;1.60;99.90;;;;;;5023439;28;20186;-71
2023/02/28 01:50:25;;;;;;;5.77;3.00;;;1.60;99.90;;;;;;5015832;28;20420;-71
2023/02/28 01:52:54;;;;;;;7.63;3.90;;;1.60;99.90;;;;;;5026210;28;20458;-71
2023/02/28 01:55:22;;;;;;;7.10;4.10;;;1.60;99.90;;;;;;5019794;28;20412;-71
2023/02/28 01:57:54;;;;;;;3.63;3.10;;;1.50;99.90;;;;;;5026805;28;20402;-71
2023/02/28 02:00:23;;;;;;;5.63;3.03;;;1.50;99.90;;;;;;5003403;28;20736;-71
2023/02/28 02:02:53;;;;;;;4.83;3.10;;;1.40;99.90;;;;;;5019170;28;20796;-71
2023/02/28 02:05:23;;;;;;;5.70;5.10;;;1.40;99.90;;;;;;5025170;28;20484;-71
2023/02/28 02:07:54;;;;;;;3.77;3.07;;;1.30;99.90;;;;;;5012542;28;20523;-71
2023/02/28 02:10:27;;;;;;;4.70;3.17;;;1.30;99.90;;;;;;5009920;28;20434;-69
2023/02/28 02:12:58;;;;;;;8.43;4.00;;;1.20;99.90;;;;;;5019100;28;20502;-71
2023/02/28 02:16:00;;;;;;;4.10;3.07;;;1.20;99.90;;;;;;5017933;28;20415;-71
2023/02/28 02:18:37;;;;;;;4.77;3.50;;;1.10;99.90;;;;;;5009685;28;20406;-70
2023/02/28 02:21:32;;;;;;;4.23;2.93;;;1.10;99.90;;;;;;5020962;28;20907;-70
2023/02/28 02:24:20;;;;;;;4.87;3.50;;;1.00;99.90;;;;;;5022774;28;20403;-70
2023/02/28 02:27:17;;;;;;;3.03;2.73;;;0.90;99.90;;;;;;5012950;28;20423;-72
2023/02/28 02:30:06;;;;;;;5.57;3.43;;;0.80;99.90;;;;;;5005666;28;20411;-70
2023/02/28 02:32:50;;;;;;;5.53;3.63;;;0.70;99.90;;;;;;5010271;28;20872;-71
2023/02/28 02:35:34;;;;;;;5.20;3.33;;;0.70;99.90;;;;;;5027156;28;20406;-71
2023/02/28 02:38:21;;;;;;;5.60;4.37;;;0.60;99.90;;;;;;5031160;28;20410;-70
2023/02/28 02:41:00;;;;;;;3.90;3.17;;;0.40;99.90;;;;;;5025168;28;20421;-72
2023/02/28 02:43:36;;;;;;;4.70;3.53;;;0.50;99.90;;;;;;5018812;28;20937;-71
2023/02/28 02:46:08;;;;;;;4.63;3.60;;;0.40;99.90;;;;;;5025244;28;20412;-70
2023/02/28 02:48:38;;;;;;;3.70;3.10;;;0.30;99.90;;;;;;5012056;28;20431;-71
2023/02/28 02:51:12;;;;;;;5.17;3.77;;;0.30;99.90;;;;;;5023254;28;20493;-70
2023/02/28 02:53:46;;;;;;;5.27;3.60;;;0.30;99.90;;;;;;5017388;28;20449;-70
2023/02/28 02:56:13;;;;;;;4.83;4.33;;;0.30;99.90;;;;;;5026901;28;20410;-70
2023/02/28 02:58:42;;;;;;;6.00;3.90;;;0.30;99.90;;;;;;5021343;28;20407;-69
2023/02/28 03:01:12;;;;;;;4.13;2.60;;;0.30;99.90;;;;;;5024964;28;20395;-71
2023/02/28 03:03:38;;;;;;;6.33;3.57;;;0.20;99.90;;;;;;5026470;28;20427;-71
2023/02/28 03:06:05;;;;;;;3.97;3.00;;;0.20;99.90;;;;;;4999192;28;20486;-71
2023/02/28 03:08:35;;;;;;;4.80;4.30;;;0.20;99.90;;;;;;4996303;28;20431;-71
2023/02/28 03:11:05;;;;;;;3.40;3.10;;;0.10;99.90;;;;;;4995978;28;20476;-71
2023/02/28 03:13:33;;;;;;;8.00;4.30;;;0.10;99.90;;;;;;5027346;28;20451;-71
2023/02/28 03:16:07;;;;;;;5.37;4.20;;;0.00;99.90;;;;;;5022293;28;20403;-71
2023/02/28 03:19:00;;;;;;;5.47;3.43;;;0.00;99.90;;;;;;5005759;28;20426;-72
2023/02/28 03:21:38;;;;;;;4.90;3.60;;;0.00;99.90;;;;;;5013157;28;20417;-71
2023/02/28 03:24:19;;;;;;;7.07;3.80;;;0.00;99.90;;;;;;5024122;28;20406;-70
2023/02/28 03:26:54;;;;;;;7.00;4.00;;;0.00;99.90;;;;;;5028939;28;20816;-70
2023/02/28 03:29:33;;;;;;;10.40;3.90;;;0.00;99.90;;;;;;5022979;28;20399;-69
2023/02/28 03:32:14;;;;;;;5.90;4.20;;;0.00;99.90;;;;;;5025113;28;20454;-71
2023/02/28 03:34:49;;;;;;;7.20;4.43;;;0.00;99.90;;;;;;5015827;28;20439;-71
2023/02/28 03:37:19;;;;;;;3.27;2.97;;;-0.10;99.90;;;;;;5023077;28;20426;-70
2023/02/28 03:40:06;;;;;;;4.27;3.40;;;-0.20;99.90;;;;;;5025407;28;20407;-70
2023/02/28 03:42:35;;;;;;;6.37;4.07;;;-0.30;99.90;;;;;;5019594;28;20433;-69
2023/02/28 03:45:08;;;;;;;5.33;3.90;;;-0.30;99.90;;;;;;5024313;28;20474;-70
2023/02/28 03:47:43;;;;;;;5.67;3.90;;;-0.40;99.90;;;;;;5025954;28;20425;-69
2023/02/28 03:50:27;;;;;;;6.43;5.80;;;-0.40;99.90;;;;;;5024560;28;20421;-70
2023/02/28 03:53:04;;;;;;;5.50;4.10;;;-0.50;99.90;;;;;;5027242;28;20473;-71
2023/02/28 03:55:38;;;;;;;10.13;6.10;;;-0.60;99.90;;;;;;5020102;28;20990;-71
2023/02/28 03:58:21;;;;;;;7.60;5.70;;;-0.50;99.90;;;;;;5020409;28;20415;-70
2023/02/28 04:00:54;;;;;;;10.30;6.00;;;-0.50;99.90;;;;;;4998103;28;21606;-71
2023/02/28 04:03:19;;;;;;;8.50;5.23;;;-0.30;99.90;;;;;;5013986;28;20453;-71
2023/02/28 04:05:51;;;;;;;10.13;6.37;;;-0.40;99.90;;;;;;5017938;28;20426;-70
2023/02/28 04:08:17;;;;;;;9.90;6.40;;;-0.40;99.90;;;;;;5023908;28;20601;-71
2023/02/28 04:10:49;;;;;;;6.73;5.93;;;-0.50;99.90;;;;;;5005361;28;20435;-71
2023/02/28 04:13:14;;;;;;;10.60;5.40;;;-0.60;99.90;;;;;;5027864;28;20199;-72
2023/02/28 04:15:40;;;;;;;7.17;4.83;;;-0.70;99.90;;;;;;5020388;28;20461;-69
2023/02/28 04:18:06;;;;;;;6.33;5.23;;;-0.80;99.90;;;;;;5028980;28;20522;-71
2023/02/28 04:20:32;;;;;;;5.20;4.00;;;-0.80;99.90;;;;;;5021785;28;20408;-72
2023/02/28 04:22:57;;;;;;;6.57;4.60;;;-0.80;99.90;;;;;;5021481;28;20189;-70
2023/02/28 04:25:23;;;;;;;6.33;4.57;;;-0.80;99.90;;;;;;5017127;28;20661;-70
2023/02/28 04:27:48;;;;;;;8.10;5.53;;;-0.90;99.90;;;;;;4986578;28;20188;-70
2023/02/28 04:30:14;;;;;;;4.70;4.30;;;-0.90;99.90;;;;;;4996625;28;20263;-67
2023/02/28 04:32:40;;;;;;;6.87;4.90;;;-0.80;99.90;;;;;;4988011;28;20687;-67
2023/02/28 04:35:06;;;;;;;4.43;3.70;;;-0.90;99.90;;;;;;4990030;28;20435;-68
2023/02/28 04:37:34;;;;;;;6.83;4.03;;;-0.90;99.90;;;;;;4975946;28;20168;-71
2023/02/28 04:40:00;;;;;;;5.20;4.70;;;-0.90;99.90;;;;;;5017806;28;20415;-70
2023/02/28 04:42:26;;;;;;;7.63;4.37;;;-0.90;99.90;;;;;;5022853;28;20525;-70
2023/02/28 04:44:52;;;;;;;5.20;4.40;;;-1.00;99.90;;;;;;5023118;28;20518;-71
2023/02/28 04:47:17;;;;;;;4.30;3.83;;;-1.00;99.90;;;;;;5021941;28;20172;-71
2023/02/28 04:49:43;;;;;;;9.63;5.43;;;-1.00;99.90;;;;;;5017802;28;20639;-71
2023/02/28 04:52:09;;;;;;;6.00;3.80;;;-1.00;99.90;;;;;;5022574;28;20283;-72
2023/02/28 04:54:35;;;;;;;8.33;4.60;;;-1.00;99.90;;;;;;5005800;28;20179;-67
2023/02/28 04:57:01;;;;;;;6.63;4.57;;;-1.10;99.90;;;;;;4997471;28;20435;-71
2023/02/28 04:59:27;;;;;;;8.10;4.70;;;-1.10;99.90;;;;;;4995288;28;20199;-70
2023/02/28 05:01:52;;;;;;;6.00;4.90;;;-1.10;99.90;;;;;;5005416;28;20454;-69
2023/02/28 05:04:18;;;;;;;8.53;5.10;;;-1.00;99.90;;;;;;5018901;28;21568;-71
2023/02/28 05:06:44;;;;;;;10.03;6.20;;;-1.00;99.90;;;;;;5017034;28;20168;-68
2023/02/28 05:09:12;;;;;;;11.23;5.90;;;-1.00;99.90;;;;;;5020470;28;20175;-71
2023/02/28 05:11:39;;;;;;;4.97;4.57;;;-0.90;99.90;;;;;;5022899;28;20924;-72
2023/02/28 05:14:09;;;;;;;6.83;5.20;;;-0.90;99.90;;;;;;5022910;28;21056;-72
2023/02/28 05:16:35;;;;;;;9.87;6.00;;;-0.90;99.90;;;;;;5012925;28;20494;-70
2023/02/28 05:19:01;;;;;;;15.37;5.90;;;-0.90;99.90;;;;;;4987474;28;20842;-73
2023/02/28 05:21:28;;;;;;;10.73;6.67;;;-0.90;99.90;;;;;;5009985;28;20175;-71
2023/02/28 05:23:54;;;;;;;17.80;7.90;;;-0.80;99.90;;;;;;5021864;28;20637;-72
2023/02/28 05:26:20;;;;;;;7.90;4.80;;;-0.80;99.90;;;;;;4992303;28;20449;-71
2023/02/28 05:28:46;;;;;;;11.90;6.30;;;-0.70;99.90;;;;;;4990976;28;20428;-70
2023/02/28 05:31:12;;;;;;;12.83;7.47;;;-0.70;99.90;;;;;;5019881;28;20473;-70
2023/02/28 05:33:37;;;;;;;13.30;6.40;;;-0.80;99.90;;;;;;5021846;28;20290;-70
2023/02/28 05:36:04;;;;;;;10.73;6.03;;;-0.90;99.90;;;;;;5021276;28;20542;-71
2023/02/28 05:38:29;;;;;;;10.20;5.07;;;-1.00;99.90;;;;;;5021924;28;20723;-71
2023/02/28 05:40:56;;;;;;;10.37;6.67;;;-0.90;99.90;;;;;;5023898;28;20460;-71
2023/02/28 05:43:21;;;;;;;12.77;6.10;;;-1.00;99.90;;;;;;5023130;28;20199;-72
2023/02/28 05:45:47;;;;;;;8.00;5.17;;;-1.10;99.90;;;;;;5019867;28;20475;-70
2023/02/28 05:48:12;;;;;;;9.13;5.43;;;-1.20;99.90;;;;;;5015269;28;20187;-70
2023/02/28 05:50:38;;;;;;;7.10;5.13;;;-1.10;99.90;;;;;;4998996;28;20181;-70
2023/02/28 05:53:04;;;;;;;10.80;4.40;;;-1.20;99.90;;;;;;5010062;28;20212;-71
2023/02/28 05:55:30;;;;;;;8.87;6.60;;;-1.20;99.90;;;;;;5022984;28;20218;-72
2023/02/28 05:57:56;;;;;;;10.40;6.30;;;-1.30;99.90;;;;;;5021960;28;20638;-72
2023/02/28 06:00:22;;;;;;;10.87;5.17;;;-1.30;99.90;;;;;;5022467;28;20399;-71
2023/02/28 06:02:48;;;;;;;7.40;5.07;;;-1.30;99.90;;;;;;5022700;28;20540;-70
2023/02/28 06:05:17;;;;;;;9.43;5.83;;;-1.20;99.90;;;;;;5019407;28;20425;-71
2023/02/28 06:07:43;;;;;;;7.40;5.30;;;-1.20;99.90;;;;;;5022134;28;20423;-71
2023/02/28 06:10:10;;;;;;;8.90;5.37;;;-1.20;99.90;;;;;;5021084;28;20777;-71
2023/02/28 06:12:37;;;;;;;7.23;4.40;;;-1.20;99.90;;;;;;5023615;28;20482;-71
2023/02/28 06:15:03;;;;;;;7.23;5.77;;;-1.20;99.90;;;;;;5017825;28;20414;-72
2023/02/28 06:17:29;;;;;;;6.17;4.70;;;-1.20;99.90;;;;;;5014685;28;20947;-71
2023/02/28 06:19:54;;;;;;;6.73;4.20;;;-1.10;99.90;;;;;;5018102;28;20473;-71
2023/02/28 06:22:20;;;;;;;9.53;6.37;;;-1.10;99.90;;;;;;5002791;28;20192;-70
2023/02/28 06:24:47;;;;;;;6.10;5.17;;;-1.10;99.90;;;;;;5018582;28;20196;-71
2023/02/28 06:27:12;;;;;;;6.93;4.97;;;-1.10;99.90;;;;;;5026416;28;20409;-72
2023/02/28 06:29:39;;;;;;;9.13;6.20;;;-1.10;99.90;;;;;;5019299;28;20179;-71
2023/02/28 06:32:05;;;;;;;7.60;5.27;;;-1.10;99.90;;;;;;4993746;28;21133;-71
2023/02/28 06:34:33;;;;;;;8.03;4.13;;;-1.00;99.90;;;;;;4992362;28;20864;-68
2023/02/28 06:37:01;;;;;;;8.70;4.67;;;-0.80;99.90;;;;;;4992562;28;20518;-70
2023/02/28 06:39:31;;;;;;;7.40;4.80;;;-0.70;99.90;;;;;;5028402;28;20469;-71
2023/02/28 06:41:57;;;;;;;4.67;4.17;;;-0.60;99.90;;;;;;5021600;28;20549;-70
2023/02/28 06:44:23;;;;;;;6.77;5.10;;;-0.50;99.90;;;;;;5029509;28;20415;-71
2023/02/28 06:46:49;;;;;;;9.10;6.00;;;-0.40;99.90;;;;;;4998198;28;20443;-70
2023/02/28 06:49:15;;;;;;;10.50;8.17;;;-0.30;99.90;;;;;;4994370;28;20809;-71
2023/02/28 06:51:44;;;;;;;12.17;6.10;;;-0.30;99.90;;;;;;5012740;28;20270;-70
2023/02/28 06:54:11;;;;;;;8.63;7.00;;;-0.10;99.90;;;;;;5023403;28;20756;-72
2023/02/28 06:56:36;;;;;;;10.57;7.37;;;0.10;99.90;;;;;;5026497;28;20410;-72
2023/02/28 06:59:03;;;;;;;9.10;6.60;;;0.20;99.90;;;;;;5021878;28;20419;-70
2023/02/28 07:01:29;;;;;;;10.57;6.30;;;0.40;99.90;;;;;;5029081;28;20232;-71
2023/02/28 07:03:55;;;;;;;9.73;7.20;;;0.60;99.90;;;;;;5041045;22;20509;-63
2023/02/28 07:06:23;;;;;;;16.27;8.30;;;0.80;99.90;;;;;;5022940;28;20427;-65
2023/02/28 07:08:50;;;;;;;9.13;6.40;;;1.20;99.90;;;;;;5029054;28;20183;-65
2023/02/28 07:11:16;;;;;;;8.23;6.67;;;1.40;99.90;;;;;;5040498;28;20500;-64
2023/02/28 07:13:41;;;;;;;11.43;6.67;;;1.60;99.90;;;;;;5040946;28;20568;-64
2023/02/28 07:16:10;;;;;;;13.23;6.83;;;1.80;99.90;;;;;;5042001;28;20595;-64
2023/02/28 07:18:36;;;;;;;8.83;5.40;;;2.10;99.90;;;;;;5044212;28;20266;-64
2023/02/28 07:21:07;;;;;;;7.10;6.00;;;2.30;99.90;;;;;;5042344;28;20432;-64
2023/02/28 07:23:33;;;;;;;10.07;7.40;;;2.50;99.90;;;;;;5039795;28;20799;-64
2023/02/28 07:25:59;;;;;;;15.13;7.27;;;3.30;99.90;;;;;;5025931;28;20434;-64
2023/02/28 07:28:25;;;;;;;10.17;6.73;;;4.30;99.90;;;;;;5043373;28;20175;-64
2023/02/28 07:30:51;;;;;;;11.00;7.70;;;4.70;99.90;;;;;;5042556;28;20196;-64
2023/02/28 07:33:17;;;;;;;15.17;8.10;;;4.30;99.90;;;;;;5042879;28;20827;-64
2023/02/28 07:35:43;;;;;;;10.60;6.30;;;3.90;99.90;;;;;;5043698;28;20262;-62
2023/02/28 07:38:09;;;;;;;9.80;6.30;;;3.80;99.90;;;;;;5025049;28;20438;-64
2023/02/28 07:40:35;;;;;;;12.63;8.03;;;3.80;99.90;;;;;;5019894;28;20424;-65
2023/02/28 07:43:03;;;;;;;7.70;6.27;;;4.00;99.90;;;;;;5042711;28;20185;-63
2023/02/28 07:45:29;;;;;;;8.63;6.00;;;4.30;99.90;;;;;;5042092;28;20425;-63
2023/02/28 07:47:55;;;;;;;9.57;7.13;;;4.50;99.90;;;;;;5026913;28;20469;-63
2023/02/28 07:50:21;;;;;;;8.70;5.87;;;4.90;99.90;;;;;;5021474;28;20461;-63
2023/02/28 07:52:47;;;;;;;13.33;6.50;;;5.10;99.90;;;;;;5042257;28;20564;-63
2023/02/28 07:55:13;;;;;;;13.20;6.23;;;5.20;99.90;;;;;;5040617;28;20464;-63
2023/02/28 07:57:40;;;;;;;8.20;6.07;;;5.80;99.90;;;;;;5041437;28;20221;-65
2023/02/28 08:00:12;;;;;;;7.10;5.40;;;6.30;99.90;;;;;;5024050;28;20433;-64
2023/02/28 08:02:38;;;;;;;8.70;5.13;;;7.30;99.90;;;;;;5043405;28;20403;-63
2023/02/28 08:05:05;;;;;;;6.57;4.77;;;7.50;99.90;;;;;;5041133;28;20539;-63
2023/02/28 08:07:30;;;;;;;4.77;3.90;;;8.20;99.90;;;;;;5033429;28;20442;-69
2023/02/28 08:09:56;;;;;;;7.50;4.83;;;8.10;99.90;;;;;;5022004;28;20426;-68
2023/02/28 08:12:22;;;;;;;12.00;4.40;;;7.50;99.90;;;;;;5042221;28;20317;-64
2023/02/28 08:14:47;;;;;;;4.40;3.37;;;9.50;99.90;;;;;;5039763;28;20196;-64
2023/02/28 08:17:13;;;;;;;5.40;3.77;;;10.10;98.00;;;;;;5044490;28;20288;-65
2023/02/28 08:19:39;;;;;;;6.10;4.20;;;8.90;97.10;;;;;;5046470;28;20202;-64
2023/02/28 08:22:04;;;;;;;4.30;2.77;;;10.50;95.10;;;;;;5023635;28;20227;-63
2023/02/28 08:24:30;;;;;;;5.40;3.30;;;10.50;93.40;;;;;;5041708;28;20196;-65
2023/02/28 08:26:56;;;;;;;4.73;3.53;;;11.40;88.50;;;;;;5041245;28;20181;-64
2023/02/28 08:29:22;;;;;;;6.70;3.20;;;10.30;83.30;;;;;;5038745;28;20401;-66
2023/02/28 08:31:48;;;;;;;3.50;2.70;;;10.60;85.20;;;;;;5041195;28;20859;-63
2023/02/28 08:34:16;;;;;;;4.50;2.60;;;10.00;85.50;;;;;;5048647;28;20454;-64
2023/02/28 08:36:44;;;;;;;3.17;2.03;;;12.00;86.10;;;;;;5043358;28;20191;-64
2023/02/28 08:39:10;;;;;;;4.20;2.60;;;13.90;72.40;;;;;;5026055;28;20540;-64
2023/02/28 08:41:36;;;;;;;2.17;1.97;;;13.90;69.70;;;;;;5032105;28;20749;-65
2023/02/28 08:44:02;;;;;;;3.20;2.47;;;14.70;67.40;;;;;;5030360;28;20205;-64
2023/02/28 08:46:27;;;;;;;3.67;2.60;;;15.20;62.20;;;;;;5040122;28;20423;-64
2023/02/28 08:48:54;;;;;;;2.80;2.10;;;13.30;60.30;;;;;;5038364;28;20180;-63
2023/02/28 08:51:25;;;;;;;2.67;2.23;;;14.10;58.90;;;;;;5029834;28;20181;-64
2023/02/28 08:53:53;;;;;;;3.60;2.57;;;14.50;59.60;;;;;;5028593;28;20529;-63
2023/02/28 08:56:20;;;;;;;4.90;3.10;;;12.90;59.10;;;;;;5016077;28;20459;-64
2023/02/28 08:58:47;;;;;;;3.67;2.13;;;11.00;60.00;;;;;;5031177;28;20500;-62
2023/02/28 09:01:18;;;;;;;2.17;1.60;;;11.20;60.90;;;;;;5032580;28;21089;-63
2023/02/28 09:03:46;;;;;;;4.77;1.83;;;12.00;58.20;;;;;;5036083;28;20945;-65
2023/02/28 09:06:12;;;;;;;3.10;1.60;;;12.20;57.90;;;;;;5029033;28;20455;-63
2023/02/28 09:08:38;;;;;;;2.13;1.93;;;12.80;58.50;;;;;;5041645;28;20407;-63
2023/02/28 09:11:04;;;;;;;4.40;1.83;;;13.90;57.10;;;;;;5040553;28;20411;-62
2023/02/28 09:13:32;;;;;;;2.43;2.23;;;14.50;54.90;;;;;;5026103;28;20958;-64
2023/02/28 09:15:59;;;;;;;2.60;2.13;;;13.70;54.30;;;;;;5025800;28;20513;-64
2023/02/28 09:18:24;;;;;;;4.33;2.33;;;13.40;54.40;;;;;;5037989;28;20414;-63
2023/02/28 09:20:50;;;;;;;2.70;1.50;;;13.70;52.60;;;;;;5028895;28;20743;-63
2023/02/28 09:23:16;;;;;;;4.70;1.97;;;12.20;56.50;;;;;;5044215;28;20287;-63
2023/02/28 09:25:50;;;;;;;1.83;1.60;;;11.60;59.00;;;;;;5020204;28;20185;-64
2023/02/28 09:28:16;;;;;;;2.87;1.80;;;11.60;58.90;;;;;;5040655;28;20219;-62
2023/02/28 09:30:45;;;;;;;1.97;1.77;;;13.50;57.20;;;;;;5038387;28;20472;-61
2023/02/28 09:33:11;;;;;;;2.33;1.70;;;12.60;56.90;;;;;;5037424;28;20416;-63
2023/02/28 09:35:37;;;;;;;2.20;1.73;;;12.90;54.90;;;;;;5043508;28;20823;-63
2023/02/28 09:38:03;;;;;;;2.60;1.67;;;10.00;55.50;;;;;;5039267;28;20420;-64
2023/02/28 09:40:31;;;;;;;2.20;1.73;;;10.50;57.60;;;;;;5047779;28;20179;-63
2023/02/28 09:42:58;;;;;;;2.20;2.00;;;10.50;57.50;;;;;;5030405;28;20465;-62
2023/02/28 09:45:30;;;;;;;2.40;1.87;;;10.30;57.30;;;;;;5008976;28;20444;-63
2023/02/28 09:48:03;;;;;;;1.87;1.67;;;10.70;57.90;;;;;;5015466;28;20894;-63
2023/02/28 09:50:35;;;;;;;2.43;1.83;;;10.30;59.40;;;;;;5027097;28;20502;-63
2023/02/28 09:53:22;;;;;;;1.60;1.50;;;10.30;57.00;;;;;;5029322;28;20432;-66
2023/02/28 09:56:05;;;;;;;3.50;1.90;;;9.40;59.90;;;;;;5007779;28;20509;-63
2023/02/28 09:58:36;;;;;;;1.57;1.47;;;8.10;64.00;;;;;;5007781;28;20449;-63
2023/02/28 10:01:21;;;;;;;3.33;2.30;;;8.80;61.40;;;;;;5022481;28;20417;-63
2023/02/28 10:04:08;;;;;;;1.63;1.40;;;8.50;63.50;;;;;;5037130;28;20979;-63
2023/02/28 10:06:48;;;;;;;1.87;1.40;;;7.70;63.80;;;;;;5031420;28;20449;-65
2023/02/28 10:09:25;;;;;;;2.03;1.70;;;7.70;63.80;;;;;;5041802;28;20420;-65
2023/02/28 10:11:52;;;;;;;2.60;1.87;;;7.20;65.10;;;;;;5036299;28;20426;-64
2023/02/28 10:14:22;;;;;;;1.87;1.10;;;7.00;66.20;;;;;;5039903;28;20436;-65
2023/02/28 10:16:56;;;;;;;2.13;1.67;;;6.40;66.60;;;;;;5041323;28;20836;-62
2023/02/28 10:19:33;;;;;;;3.70;1.60;;;6.30;69.20;;;;;;5041183;28;20439;-62
2023/02/28 10:22:01;;;;;;;4.60;2.30;;;5.90;69.00;;;;;;5040984;28;20713;-63
2023/02/28 10:24:47;;;;;;;2.90;2.63;;;6.00;69.60;;;;;;5029100;28;20455;-63
2023/02/28 10:27:25;;;;;;;2.37;1.80;;;5.80;69.50;;;;;;5037709;28;20483;-63
2023/02/28 10:29:53;;;;;;;1.40;1.30;;;5.30;70.20;;;;;;5042724;28;20432;-63
2023/02/28 10:32:22;;;;;;;2.67;2.10;;;5.10;73.40;;;;;;5038701;28;20528;-63
2023/02/28 10:35:18;;;;;;;5.73;2.20;;;5.30;73.90;;;;;;5042977;28;20429;-64
2023/02/28 10:37:46;;;;;;;2.73;2.10;;;5.20;74.20;;;;;;5036282;28;20407;-64
2023/02/28 10:40:17;;;;;;;2.90;2.03;;;5.40;74.00;;;;;;5045336;28;20480;-64
2023/02/28 10:42:59;;;;;;;4.10;1.90;;;5.30;73.40;;;;;;5021272;28;20486;-62
2023/02/28 10:45:26;;;;;;;2.30;1.80;;;5.20;74.70;;;;;;5007967;28;20936;-64
2023/02/28 10:47:59;;;;;;;1.43;1.30;;;5.30;74.50;;;;;;5005139;28;20438;-64
2023/02/28 10:50:33;;;;;;;2.73;1.57;;;5.30;74.30;;;;;;5024784;28;20421;-62
2023/02/28 10:53:19;;;;;;;1.70;1.60;;;5.10;74.20;;;;;;5039692;28;20520;-63
2023/02/28 10:55:44;;;;;;;2.20;1.63;;;5.00;74.40;;;;;;5040963;28;20405;-64
2023/02/28 10:58:27;;;;;;;2.03;1.83;;;4.90;74.90;;;;;;5040006;28;20500;-64
2023/02/28 11:00:53;;;;;;;2.00;1.30;;;4.90;75.60;;;;;;5015839;28;20184;-62
2023/02/28 11:03:32;;;;;;;1.63;1.43;;;5.00;75.20;;;;;;5027939;28;20830;-63
2023/02/28 11:05:58;;;;;;;1.90;1.70;;;5.00;75.50;;;;;;5040393;28;20412;-64
2023/02/28 11:08:24;;;;;;;2.60;1.50;;;4.90;76.00;;;;;;5038429;28;20428;-64
2023/02/28 11:11:00;;;;;;;1.90;1.73;;;4.90;75.70;;;;;;5040954;28;20409;-63
2023/02/28 11:13:31;;;;;;;2.93;1.70;;;4.90;76.10;;;;;;5036031;28;20410;-64
2023/02/28 11:15:59;;;;;;;2.50;1.43;;;4.90;76.30;;;;;;5037853;28;20411;-64
2023/02/28 11:18:42;;;;;;;2.90;2.70;;;4.90;76.70;;;;;;5023215;28;20473;-64
2023/02/28 11:21:09;;;;;;;2.13;1.97;;;4.90;76.60;;;;;;5040047;28;20427;-63
2023/02/28 11:23:39;;;;;;;2.40;1.70;;;4.90;77.40;;;;;;5048033;28;20553;-64
2023/02/28 11:26:09;;;;;;;1.80;1.70;;;5.00;77.60;;;;;;5038815;28;20411;-64
2023/02/28 11:28:40;;;;;;;2.23;2.03;;;4.90;76.80;;;;;;5044079;28;20759;-64
2023/02/28 11:31:19;;;;;;;2.00;1.90;;;4.90;77.80;;;;;;5043246;28;20402;-63
2023/02/28 11:33:51;;;;;;;1.97;1.50;;;5.00;77.60;;;;;;5043855;28;20425;-63
2023/02/28 11:36:26;;;;;;;4.10;2.40;;;5.10;80.10;;;;;;5037948;28;20830;-63
2023/02/28 11:38:55;;;;;;;1.97;1.87;;;5.10;77.30;;;;;;5039508;28;20445;-64
2023/02/28 11:41:47;;;;;;;1.67;1.57;;;5.00;77.50;;;;;;5042783;28;20405;-63
2023/02/28 11:44:18;;;;;;;2.10;1.90;;;5.00;77.20;;;;;;5041518;28;20487;-63
2023/02/28 11:46:51;;;;;;;2.23;1.80;;;5.10;77.80;;;;;;5044065;28;20459;-63
2023/02/28 11:49:56;;;;;;;2.50;2.27;;;5.20;76.80;;;;;;5043134;28;20480;-63
2023/02/28 11:52:33;;;;;;;5.10;3.07;;;5.00;77.20;;;;;;5046884;28;20769;-65
2023/02/28 11:55:19;;;;;;;3.67;2.53;;;5.00;78.10;;;;;;5036387;28;20516;-64
2023/02/28 11:58:14;;;;;;;3.47;2.30;;;5.10;78.50;;;;;;5035065;28;20409;-65
2023/02/28 12:00:58;;;;;;;4.57;2.03;;;5.20;78.50;;;;;;5028427;28;20407;-64
2023/02/28 12:03:35;;;;;;;4.30;2.33;;;5.10;77.20;;;;;;5040376;28;20452;-64
2023/02/28 12:06:38;;;;;;;2.40;2.10;;;5.10;78.30;;;;;;5044618;28;20416;-64
2023/02/28 12:09:20;;;;;;;2.00;1.80;;;5.10;77.00;;;;;;5043842;28;20424;-64
2023/02/28 12:11:55;;;;;;;2.40;2.10;;;5.20;77.90;;;;;;5039159;28;20773;-65
2023/02/28 12:14:30;;;;;;;2.77;2.57;;;5.40;78.70;;;;;;5034381;28;20432;-63
2023/02/28 12:17:20;;;;;;;1.80;1.63;;;5.30;77.00;;;;;;5041888;28;20404;-64
2023/02/28 12:20:16;;;;;;;2.40;2.10;;;5.40;78.10;;;;;;5038039;28;20424;-64
2023/02/28 12:23:07;;;;;;;3.10;2.47;;;5.30;78.40;;;;;;5040504;28;20799;-64
2023/02/28 12:26:09;;;;;;;6.73;3.00;;;5.30;77.60;;;;;;5040527;28;20505;-65
2023/02/28 12:28:41;;;;;;;2.73;2.03;;;5.30;78.10;;;;;;5015375;28;20495;-65
2023/02/28 12:31:30;;;;;;;2.00;1.87;;;5.40;78.40;;;;;;5040274;28;20414;-64
2023/02/28 12:34:02;;;;;;;3.10;2.37;;;5.50;78.60;;;;;;5041518;28;20434;-62
2023/02/28 12:36:28;;;;;;;3.30;3.00;;;5.40;77.80;;;;;;5031536;28;20493;-65
2023/02/28 12:39:08;;;;;;;3.10;2.50;;;5.30;77.60;;;;;;5042174;28;20497;-64
2023/02/28 12:41:48;;;;;;;3.37;2.10;;;5.40;78.10;;;;;;5033988;28;20163;-66
2023/02/28 12:44:42;;;;;;;2.60;2.40;;;5.50;78.00;;;;;;5040272;28;20480;-63
2023/02/28 12:47:14;;;;;;;2.30;2.03;;;5.50;77.70;;;;;;5028932;28;20509;-63
2023/02/28 12:49:49;;;;;;;4.10;2.70;;;5.60;77.00;;;;;;5038724;28;20398;-63
2023/02/28 12:52:22;;;;;;;2.90;2.57;;;5.50;76.60;;;;;;5027873;28;20448;-63
2023/02/28 12:55:12;;;;;;;3.50;2.47;;;5.60;76.50;;;;;;5038665;28;20480;-63
2023/02/28 12:57:53;;;;;;;2.77;2.50;;;5.60;76.00;;;;;;5035365;28;20451;-62
2023/02/28 13:00:22;;;;;;;2.63;2.33;;;5.60;75.70;;;;;;5041419;28;20416;-63
2023/02/28 13:03:08;;;;;;;2.93;2.60;;;5.70;77.00;;;;;;5041161;28;20970;-64
2023/02/28 13:06:10;;;;;;;3.17;2.00;;;5.90;77.60;;;;;;5031787;28;20441;-64
2023/02/28 13:08:36;;;;;;;3.23;2.40;;;5.80;76.30;;;;;;5021806;28;20421;-64
2023/02/28 13:11:02;;;;;;;6.87;2.50;;;5.70;76.00;;;;;;5017370;28;20427;-63